sensor_id;sensor_type;location;lat;lon;timestamp;P1;durP1;ratioP1;P2;durP2;ratioP2
6537;SDS011;3302;52.508;13.454;2024-03-06T00:02:06;15.03;;;10.60;;
6537;SDS011;3302;52.508;13.454;2024-03-06T00:04:32;13.97;;;10.47;;
6537;SDS011;3302;52.508;13.454;2024-03-06T00:06:58;12.17;;;9.40;;
6537;SDS011;3302;52.508;13.454;2024-03-06T00:09:26;12.63;;;9.93;;
6537;SDS011;3302;52.508;13.454;2024-03-06T00:11:55;13.10;;;9.73;;
6537;SDS011;3302;52.508;13.454;2024-03-06T00:14:22;13.30;;;10.30;;
6537;SDS011;3302;52.508;13.454;2024-03-06T00:16:48;14.73;;;10.63;;
6537;SDS011;3302;52.508;13.454;2024-03-06T00:19:17;12.83;;;10.33;;
6537;SDS011;3302;52.508;13.454;2024-03-06T00:21:43;13.13;;;9.90;;
6537;SDS011;3302;52.508;13.454;2024-03-06T00:24:15;16.53;;;10.33;;
6537;SDS011;3302;52.508;13.454;2024-03-06T00:26:41;14.30;;;9.50;;
6537;SDS011;3302;52.508;13.454;2024-03-06T00:29:09;13.83;;;9.97;;
6537;SDS011;3302;52.508;13.454;2024-03-06T00:31:35;13.37;;;10.87;;
6537;SDS011;3302;52.508;13.454;2024-03-06T00:34:01;15.57;;;10.83;;
6537;SDS011;3302;52.508;13.454;2024-03-06T00:36:27;15.20;;;10.43;;
6537;SDS011;3302;52.508;13.454;2024-03-06T00:38:53;13.60;;;10.03;;
6537;SDS011;3302;52.508;13.454;2024-03-06T00:41:19;12.97;;;10.10;;
6537;SDS011;3302;52.508;13.454;2024-03-06T00:43:45;14.87;;;10.83;;
6537;SDS011;3302;52.508;13.454;2024-03-06T00:46:11;16.20;;;10.03;;
6537;SDS011;3302;52.508;13.454;2024-03-06T00:48:37;13.03;;;10.07;;
6537;SDS011;3302;52.508;13.454;2024-03-06T00:51:04;13.63;;;9.67;;
6537;SDS011;3302;52.508;13.454;2024-03-06T00:53:32;13.50;;;10.07;;
6537;SDS011;3302;52.508;13.454;2024-03-06T00:56:01;14.67;;;10.23;;
6537;SDS011;3302;52.508;13.454;2024-03-06T00:58:27;13.07;;;9.63;;
6537;SDS011;3302;52.508;13.454;2024-03-06T01:00:53;14.00;;;9.77;;
6537;SDS011;3302;52.508;13.454;2024-03-06T01:03:19;15.17;;;10.47;;
6537;SDS011;3302;52.508;13.454;2024-03-06T01:05:45;12.73;;;9.93;;
6537;SDS011;3302;52.508;13.454;2024-03-06T01:08:11;17.40;;;10.40;;
6537;SDS011;3302;52.508;13.454;2024-03-06T01:10:37;18.40;;;11.03;;
6537;SDS011;3302;52.508;13.454;2024-03-06T01:13:03;15.43;;;10.70;;
6537;SDS011;3302;52.508;13.454;2024-03-06T01:15:29;13.87;;;10.00;;
6537;SDS011;3302;52.508;13.454;2024-03-06T01:17:55;13.63;;;9.63;;
6537;SDS011;3302;52.508;13.454;2024-03-06T01:20:22;14.83;;;10.47;;
6537;SDS011;3302;52.508;13.454;2024-03-06T01:22:48;15.00;;;10.83;;
6537;SDS011;3302;52.508;13.454;2024-03-06T01:25:14;12.80;;;9.47;;
6537;SDS011;3302;52.508;13.454;2024-03-06T01:27:40;13.20;;;9.93;;
6537;SDS011;3302;52.508;13.454;2024-03-06T01:30:06;13.40;;;9.83;;
6537;SDS011;3302;52.508;13.454;2024-03-06T01:32:32;14.63;;;10.57;;
6537;SDS011;3302;52.508;13.454;2024-03-06T01:34:58;16.30;;;10.60;;
6537;SDS011;3302;52.508;13.454;2024-03-06T01:37:24;14.83;;;10.40;;
6537;SDS011;3302;52.508;13.454;2024-03-06T01:39:50;15.70;;;10.43;;
6537;SDS011;3302;52.508;13.454;2024-03-06T01:42:19;13.70;;;9.67;;
6537;SDS011;3302;52.508;13.454;2024-03-06T01:44:44;13.83;;;10.20;;
6537;SDS011;3302;52.508;13.454;2024-03-06T01:47:10;14.03;;;9.90;;
6537;SDS011;3302;52.508;13.454;2024-03-06T01:49:36;14.23;;;9.93;;
6537;SDS011;3302;52.508;13.454;2024-03-06T01:52:02;14.90;;;10.13;;
6537;SDS011;3302;52.508;13.454;2024-03-06T01:54:29;14.33;;;9.90;;
6537;SDS011;3302;52.508;13.454;2024-03-06T01:56:56;15.43;;;9.37;;
6537;SDS011;3302;52.508;13.454;2024-03-06T01:59:25;14.33;;;10.53;;
6537;SDS011;3302;52.508;13.454;2024-03-06T02:01:52;14.33;;;9.90;;
6537;SDS011;3302;52.508;13.454;2024-03-06T02:04:19;15.27;;;10.43;;
6537;SDS011;3302;52.508;13.454;2024-03-06T02:06:45;12.73;;;9.63;;
6537;SDS011;3302;52.508;13.454;2024-03-06T02:09:12;13.07;;;10.00;;
6537;SDS011;3302;52.508;13.454;2024-03-06T02:11:39;14.33;;;9.93;;
6537;SDS011;3302;52.508;13.454;2024-03-06T02:14:07;14.07;;;10.87;;
6537;SDS011;3302;52.508;13.454;2024-03-06T02:16:35;13.00;;;9.70;;
6537;SDS011;3302;52.508;13.454;2024-03-06T02:19:04;14.93;;;10.50;;
6537;SDS011;3302;52.508;13.454;2024-03-06T02:21:30;15.23;;;10.40;;
6537;SDS011;3302;52.508;13.454;2024-03-06T02:23:56;15.47;;;11.20;;
6537;SDS011;3302;52.508;13.454;2024-03-06T02:26:22;13.77;;;10.47;;
6537;SDS011;3302;52.508;13.454;2024-03-06T02:28:48;15.60;;;10.53;;
6537;SDS011;3302;52.508;13.454;2024-03-06T02:31:18;15.27;;;10.60;;
6537;SDS011;3302;52.508;13.454;2024-03-06T02:33:45;14.60;;;10.40;;
6537;SDS011;3302;52.508;13.454;2024-03-06T02:36:15;16.03;;;10.73;;
6537;SDS011;3302;52.508;13.454;2024-03-06T02:38:42;61.53;;;15.17;;
6537;SDS011;3302;52.508;13.454;2024-03-06T02:41:08;74.27;;;17.07;;
6537;SDS011;3302;52.508;13.454;2024-03-06T02:43:35;87.10;;;18.93;;
6537;SDS011;3302;52.508;13.454;2024-03-06T02:46:02;66.93;;;14.90;;
6537;SDS011;3302;52.508;13.454;2024-03-06T02:48:28;39.83;;;13.23;;
6537;SDS011;3302;52.508;13.454;2024-03-06T02:50:54;38.17;;;13.70;;
6537;SDS011;3302;52.508;13.454;2024-03-06T02:53:21;23.67;;;11.33;;
6537;SDS011;3302;52.508;13.454;2024-03-06T02:55:47;19.53;;;11.13;;
6537;SDS011;3302;52.508;13.454;2024-03-06T02:58:13;17.30;;;10.50;;
6537;SDS011;3302;52.508;13.454;2024-03-06T03:00:39;17.07;;;11.50;;
6537;SDS011;3302;52.508;13.454;2024-03-06T03:03:08;15.97;;;10.50;;
6537;SDS011;3302;52.508;13.454;2024-03-06T03:05:37;17.50;;;11.60;;
6537;SDS011;3302;52.508;13.454;2024-03-06T03:08:03;16.10;;;10.73;;
6537;SDS011;3302;52.508;13.454;2024-03-06T03:10:30;13.83;;;11.17;;
6537;SDS011;3302;52.508;13.454;2024-03-06T03:12:56;13.53;;;10.03;;
6537;SDS011;3302;52.508;13.454;2024-03-06T03:15:22;17.23;;;11.73;;
6537;SDS011;3302;52.508;13.454;2024-03-06T03:17:48;17.87;;;11.20;;
6537;SDS011;3302;52.508;13.454;2024-03-06T03:20:14;17.10;;;10.73;;
6537;SDS011;3302;52.508;13.454;2024-03-06T03:22:42;15.63;;;11.17;;
6537;SDS011;3302;52.508;13.454;2024-03-06T03:25:09;13.67;;;9.90;;
6537;SDS011;3302;52.508;13.454;2024-03-06T03:27:39;17.00;;;10.80;;
6537;SDS011;3302;52.508;13.454;2024-03-06T03:30:12;13.77;;;10.40;;
6537;SDS011;3302;52.508;13.454;2024-03-06T03:32:38;14.67;;;10.50;;
6537;SDS011;3302;52.508;13.454;2024-03-06T03:35:05;15.33;;;10.43;;
6537;SDS011;3302;52.508;13.454;2024-03-06T03:37:31;13.90;;;9.93;;
6537;SDS011;3302;52.508;13.454;2024-03-06T03:39:57;15.47;;;9.93;;
6537;SDS011;3302;52.508;13.454;2024-03-06T03:42:23;14.40;;;10.97;;
6537;SDS011;3302;52.508;13.454;2024-03-06T03:44:49;12.83;;;10.13;;
6537;SDS011;3302;52.508;13.454;2024-03-06T03:47:15;18.53;;;11.43;;
6537;SDS011;3302;52.508;13.454;2024-03-06T03:49:41;15.93;;;10.80;;
6537;SDS011;3302;52.508;13.454;2024-03-06T03:52:07;14.20;;;9.23;;
6537;SDS011;3302;52.508;13.454;2024-03-06T03:54:33;17.23;;;11.60;;
6537;SDS011;3302;52.508;13.454;2024-03-06T03:57:00;14.43;;;10.57;;
6537;SDS011;3302;52.508;13.454;2024-03-06T03:59:26;17.30;;;12.17;;
6537;SDS011;3302;52.508;13.454;2024-03-06T04:01:52;16.10;;;10.63;;
6537;SDS011;3302;52.508;13.454;2024-03-06T04:04:18;18.63;;;11.80;;
6537;SDS011;3302;52.508;13.454;2024-03-06T04:06:43;16.60;;;11.23;;
6537;SDS011;3302;52.508;13.454;2024-03-06T04:09:10;16.60;;;11.30;;
6537;SDS011;3302;52.508;13.454;2024-03-06T04:11:37;15.73;;;11.50;;
6537;SDS011;3302;52.508;13.454;2024-03-06T04:14:05;16.43;;;11.27;;
6537;SDS011;3302;52.508;13.454;2024-03-06T04:16:32;17.67;;;11.10;;
6537;SDS011;3302;52.508;13.454;2024-03-06T04:18:58;15.27;;;11.20;;
6537;SDS011;3302;52.508;13.454;2024-03-06T04:21:24;14.67;;;11.07;;
6537;SDS011;3302;52.508;13.454;2024-03-06T04:23:50;15.90;;;10.73;;
6537;SDS011;3302;52.508;13.454;2024-03-06T04:26:15;18.57;;;11.50;;
6537;SDS011;3302;52.508;13.454;2024-03-06T04:28:42;15.07;;;10.93;;
6537;SDS011;3302;52.508;13.454;2024-03-06T04:31:09;13.17;;;10.23;;
6537;SDS011;3302;52.508;13.454;2024-03-06T04:33:35;17.07;;;10.90;;
6537;SDS011;3302;52.508;13.454;2024-03-06T04:36:02;14.73;;;11.03;;
6537;SDS011;3302;52.508;13.454;2024-03-06T04:38:28;15.10;;;10.63;;
6537;SDS011;3302;52.508;13.454;2024-03-06T04:40:54;15.23;;;10.97;;
6537;SDS011;3302;52.508;13.454;2024-03-06T04:43:20;14.17;;;10.00;;
6537;SDS011;3302;52.508;13.454;2024-03-06T04:45:46;16.73;;;11.17;;
6537;SDS011;3302;52.508;13.454;2024-03-06T04:48:12;15.67;;;10.63;;
6537;SDS011;3302;52.508;13.454;2024-03-06T04:50:37;17.07;;;11.00;;
6537;SDS011;3302;52.508;13.454;2024-03-06T04:53:03;16.57;;;11.00;;
6537;SDS011;3302;52.508;13.454;2024-03-06T04:55:29;14.97;;;10.97;;
6537;SDS011;3302;52.508;13.454;2024-03-06T04:57:56;17.57;;;11.23;;
6537;SDS011;3302;52.508;13.454;2024-03-06T05:00:21;18.27;;;11.80;;
6537;SDS011;3302;52.508;13.454;2024-03-06T05:02:48;13.87;;;10.63;;
6537;SDS011;3302;52.508;13.454;2024-03-06T05:05:14;17.17;;;12.27;;
6537;SDS011;3302;52.508;13.454;2024-03-06T05:07:40;16.87;;;10.73;;
6537;SDS011;3302;52.508;13.454;2024-03-06T05:10:06;16.30;;;11.43;;
6537;SDS011;3302;52.508;13.454;2024-03-06T05:12:35;15.80;;;11.23;;
6537;SDS011;3302;52.508;13.454;2024-03-06T05:15:01;17.40;;;10.87;;
6537;SDS011;3302;52.508;13.454;2024-03-06T05:17:27;16.33;;;11.10;;
6537;SDS011;3302;52.508;13.454;2024-03-06T05:19:53;16.77;;;11.23;;
6537;SDS011;3302;52.508;13.454;2024-03-06T05:22:20;15.50;;;11.00;;
6537;SDS011;3302;52.508;13.454;2024-03-06T05:24:46;21.77;;;12.40;;
6537;SDS011;3302;52.508;13.454;2024-03-06T05:27:12;18.67;;;11.50;;
6537;SDS011;3302;52.508;13.454;2024-03-06T05:29:41;16.50;;;10.77;;
6537;SDS011;3302;52.508;13.454;2024-03-06T05:32:10;21.40;;;11.93;;
6537;SDS011;3302;52.508;13.454;2024-03-06T05:34:36;16.53;;;10.77;;
6537;SDS011;3302;52.508;13.454;2024-03-06T05:37:02;16.27;;;11.43;;
6537;SDS011;3302;52.508;13.454;2024-03-06T05:39:31;17.63;;;11.30;;
6537;SDS011;3302;52.508;13.454;2024-03-06T05:42:00;15.53;;;10.77;;
6537;SDS011;3302;52.508;13.454;2024-03-06T05:44:30;16.23;;;11.20;;
6537;SDS011;3302;52.508;13.454;2024-03-06T05:47:01;20.37;;;11.70;;
6537;SDS011;3302;52.508;13.454;2024-03-06T05:49:27;21.47;;;11.93;;
6537;SDS011;3302;52.508;13.454;2024-03-06T05:51:54;17.43;;;11.43;;
6537;SDS011;3302;52.508;13.454;2024-03-06T05:54:20;18.07;;;12.03;;
6537;SDS011;3302;52.508;13.454;2024-03-06T05:56:47;19.07;;;12.80;;
6537;SDS011;3302;52.508;13.454;2024-03-06T05:59:17;16.37;;;12.10;;
6537;SDS011;3302;52.508;13.454;2024-03-06T06:01:43;17.13;;;11.40;;
6537;SDS011;3302;52.508;13.454;2024-03-06T06:04:10;22.17;;;12.37;;
6537;SDS011;3302;52.508;13.454;2024-03-06T06:06:36;20.20;;;12.70;;
6537;SDS011;3302;52.508;13.454;2024-03-06T06:09:02;21.03;;;12.87;;
6537;SDS011;3302;52.508;13.454;2024-03-06T06:11:32;17.73;;;12.30;;
6537;SDS011;3302;52.508;13.454;2024-03-06T06:14:01;18.73;;;12.27;;
6537;SDS011;3302;52.508;13.454;2024-03-06T06:16:27;18.43;;;12.10;;
6537;SDS011;3302;52.508;13.454;2024-03-06T06:18:59;19.53;;;12.90;;
6537;SDS011;3302;52.508;13.454;2024-03-06T06:21:25;18.20;;;12.50;;
6537;SDS011;3302;52.508;13.454;2024-03-06T06:23:51;21.73;;;13.43;;
6537;SDS011;3302;52.508;13.454;2024-03-06T06:26:17;18.43;;;12.67;;
6537;SDS011;3302;52.508;13.454;2024-03-06T06:28:43;19.57;;;13.13;;
6537;SDS011;3302;52.508;13.454;2024-03-06T06:31:08;20.17;;;12.87;;
6537;SDS011;3302;52.508;13.454;2024-03-06T06:33:34;19.37;;;12.63;;
6537;SDS011;3302;52.508;13.454;2024-03-06T06:36:00;23.30;;;13.63;;
6537;SDS011;3302;52.508;13.454;2024-03-06T06:38:26;18.20;;;12.57;;
6537;SDS011;3302;52.508;13.454;2024-03-06T06:40:52;19.30;;;13.13;;
6537;SDS011;3302;52.508;13.454;2024-03-06T06:43:17;19.43;;;13.27;;
6537;SDS011;3302;52.508;13.454;2024-03-06T06:45:43;19.30;;;13.33;;
6537;SDS011;3302;52.508;13.454;2024-03-06T06:48:09;20.77;;;13.67;;
6537;SDS011;3302;52.508;13.454;2024-03-06T06:50:35;21.33;;;13.50;;
6537;SDS011;3302;52.508;13.454;2024-03-06T06:53:01;19.23;;;12.83;;
6537;SDS011;3302;52.508;13.454;2024-03-06T06:55:27;17.70;;;12.57;;
6537;SDS011;3302;52.508;13.454;2024-03-06T06:57:53;19.03;;;12.83;;
6537;SDS011;3302;52.508;13.454;2024-03-06T07:00:19;20.17;;;12.20;;
6537;SDS011;3302;52.508;13.454;2024-03-06T07:02:48;19.30;;;12.73;;
6537;SDS011;3302;52.508;13.454;2024-03-06T07:05:14;18.13;;;12.43;;
6537;SDS011;3302;52.508;13.454;2024-03-06T07:07:40;16.43;;;12.20;;
6537;SDS011;3302;52.508;13.454;2024-03-06T07:10:06;17.50;;;12.00;;
6537;SDS011;3302;52.508;13.454;2024-03-06T07:12:33;16.50;;;11.80;;
6537;SDS011;3302;52.508;13.454;2024-03-06T07:14:59;17.77;;;12.47;;
6537;SDS011;3302;52.508;13.454;2024-03-06T07:17:25;17.63;;;12.13;;
6537;SDS011;3302;52.508;13.454;2024-03-06T07:19:51;17.77;;;11.67;;
6537;SDS011;3302;52.508;13.454;2024-03-06T07:22:18;17.20;;;11.67;;
6537;SDS011;3302;52.508;13.454;2024-03-06T07:24:44;17.87;;;11.47;;
6537;SDS011;3302;52.508;13.454;2024-03-06T07:27:10;14.93;;;11.20;;
6537;SDS011;3302;52.508;13.454;2024-03-06T07:29:36;14.83;;;10.30;;
6537;SDS011;3302;52.508;13.454;2024-03-06T07:32:02;14.37;;;10.03;;
6537;SDS011;3302;52.508;13.454;2024-03-06T07:34:30;16.17;;;11.30;;
6537;SDS011;3302;52.508;13.454;2024-03-06T07:36:56;15.70;;;11.27;;
6537;SDS011;3302;52.508;13.454;2024-03-06T07:39:24;14.00;;;10.47;;
6537;SDS011;3302;52.508;13.454;2024-03-06T07:41:50;13.93;;;10.57;;
6537;SDS011;3302;52.508;13.454;2024-03-06T07:44:16;13.43;;;9.80;;
6537;SDS011;3302;52.508;13.454;2024-03-06T07:46:43;14.03;;;9.93;;
6537;SDS011;3302;52.508;13.454;2024-03-06T07:49:09;13.90;;;10.23;;
6537;SDS011;3302;52.508;13.454;2024-03-06T07:51:35;15.77;;;10.77;;
6537;SDS011;3302;52.508;13.454;2024-03-06T07:54:01;13.30;;;9.67;;
6537;SDS011;3302;52.508;13.454;2024-03-06T07:56:29;13.73;;;9.60;;
6537;SDS011;3302;52.508;13.454;2024-03-06T07:58:55;13.17;;;9.60;;
6537;SDS011;3302;52.508;13.454;2024-03-06T08:01:21;13.07;;;9.70;;
6537;SDS011;3302;52.508;13.454;2024-03-06T08:03:47;12.63;;;9.20;;
6537;SDS011;3302;52.508;13.454;2024-03-06T08:06:13;13.50;;;9.47;;
6537;SDS011;3302;52.508;13.454;2024-03-06T08:08:42;12.87;;;9.70;;
6537;SDS011;3302;52.508;13.454;2024-03-06T08:11:12;12.47;;;8.83;;
6537;SDS011;3302;52.508;13.454;2024-03-06T08:13:38;13.43;;;9.20;;
6537;SDS011;3302;52.508;13.454;2024-03-06T08:16:05;13.60;;;8.50;;
6537;SDS011;3302;52.508;13.454;2024-03-06T08:18:32;11.70;;;8.90;;
6537;SDS011;3302;52.508;13.454;2024-03-06T08:20:58;11.10;;;8.40;;
6537;SDS011;3302;52.508;13.454;2024-03-06T08:23:24;12.47;;;8.00;;
6537;SDS011;3302;52.508;13.454;2024-03-06T08:25:50;10.70;;;7.90;;
6537;SDS011;3302;52.508;13.454;2024-03-06T08:28:17;10.77;;;8.27;;
6537;SDS011;3302;52.508;13.454;2024-03-06T08:30:44;11.23;;;8.33;;
6537;SDS011;3302;52.508;13.454;2024-03-06T08:33:10;9.10;;;7.57;;
6537;SDS011;3302;52.508;13.454;2024-03-06T08:35:36;11.57;;;7.97;;
6537;SDS011;3302;52.508;13.454;2024-03-06T08:38:02;13.23;;;9.00;;
6537;SDS011;3302;52.508;13.454;2024-03-06T08:40:29;11.10;;;8.27;;
6537;SDS011;3302;52.508;13.454;2024-03-06T08:42:55;11.70;;;7.90;;
6537;SDS011;3302;52.508;13.454;2024-03-06T08:45:21;12.50;;;8.20;;
6537;SDS011;3302;52.508;13.454;2024-03-06T08:47:50;9.67;;;8.00;;
6537;SDS011;3302;52.508;13.454;2024-03-06T08:50:19;10.03;;;8.10;;
6537;SDS011;3302;52.508;13.454;2024-03-06T08:52:45;10.80;;;7.37;;
6537;SDS011;3302;52.508;13.454;2024-03-06T08:55:11;9.93;;;7.67;;
6537;SDS011;3302;52.508;13.454;2024-03-06T08:57:38;10.23;;;7.97;;
6537;SDS011;3302;52.508;13.454;2024-03-06T09:00:06;10.53;;;8.17;;
6537;SDS011;3302;52.508;13.454;2024-03-06T09:02:39;10.60;;;7.60;;
6537;SDS011;3302;52.508;13.454;2024-03-06T09:05:08;9.60;;;7.50;;
6537;SDS011;3302;52.508;13.454;2024-03-06T09:07:36;11.40;;;8.93;;
6537;SDS011;3302;52.508;13.454;2024-03-06T09:10:08;8.10;;;6.63;;
6537;SDS011;3302;52.508;13.454;2024-03-06T09:12:38;10.23;;;7.27;;
6537;SDS011;3302;52.508;13.454;2024-03-06T09:15:05;9.70;;;7.77;;
6537;SDS011;3302;52.508;13.454;2024-03-06T09:17:34;10.13;;;7.37;;
6537;SDS011;3302;52.508;13.454;2024-03-06T09:20:00;9.33;;;6.50;;
6537;SDS011;3302;52.508;13.454;2024-03-06T09:22:43;9.27;;;6.93;;
6537;SDS011;3302;52.508;13.454;2024-03-06T09:25:09;13.73;;;8.33;;
6537;SDS011;3302;52.508;13.454;2024-03-06T09:27:37;7.90;;;6.87;;
6537;SDS011;3302;52.508;13.454;2024-03-06T09:30:03;9.57;;;6.83;;
6537;SDS011;3302;52.508;13.454;2024-03-06T09:32:29;9.70;;;7.20;;
6537;SDS011;3302;52.508;13.454;2024-03-06T09:34:55;9.27;;;6.27;;
6537;SDS011;3302;52.508;13.454;2024-03-06T09:37:21;7.40;;;6.00;;
6537;SDS011;3302;52.508;13.454;2024-03-06T09:39:47;9.93;;;6.90;;
6537;SDS011;3302;52.508;13.454;2024-03-06T09:42:13;7.73;;;5.87;;
6537;SDS011;3302;52.508;13.454;2024-03-06T09:44:40;9.07;;;6.87;;
6537;SDS011;3302;52.508;13.454;2024-03-06T09:47:06;8.43;;;6.50;;
6537;SDS011;3302;52.508;13.454;2024-03-06T09:49:32;10.53;;;6.33;;
6537;SDS011;3302;52.508;13.454;2024-03-06T09:52:00;9.33;;;6.60;;
6537;SDS011;3302;52.508;13.454;2024-03-06T09:54:28;7.97;;;6.77;;
6537;SDS011;3302;52.508;13.454;2024-03-06T09:56:54;8.83;;;6.10;;
6537;SDS011;3302;52.508;13.454;2024-03-06T09:59:22;10.70;;;7.53;;
6537;SDS011;3302;52.508;13.454;2024-03-06T10:01:55;10.13;;;7.87;;
6537;SDS011;3302;52.508;13.454;2024-03-06T10:04:23;9.20;;;6.47;;
6537;SDS011;3302;52.508;13.454;2024-03-06T10:06:52;8.20;;;6.63;;
6537;SDS011;3302;52.508;13.454;2024-03-06T10:09:23;10.40;;;7.30;;
6537;SDS011;3302;52.508;13.454;2024-03-06T10:11:50;8.17;;;6.33;;
6537;SDS011;3302;52.508;13.454;2024-03-06T10:14:19;6.53;;;5.53;;
6537;SDS011;3302;52.508;13.454;2024-03-06T10:19:24;8.20;;;6.67;;
6537;SDS011;3302;52.508;13.454;2024-03-06T10:21:53;10.17;;;6.70;;
6537;SDS011;3302;52.508;13.454;2024-03-06T10:26:52;9.37;;;6.27;;
6537;SDS011;3302;52.508;13.454;2024-03-06T10:29:21;10.67;;;6.50;;
6537;SDS011;3302;52.508;13.454;2024-03-06T10:31:51;7.33;;;5.67;;
6537;SDS011;3302;52.508;13.454;2024-03-06T10:34:20;7.50;;;5.80;;
6537;SDS011;3302;52.508;13.454;2024-03-06T10:36:48;9.30;;;6.47;;
6537;SDS011;3302;52.508;13.454;2024-03-06T10:39:23;7.07;;;6.07;;
6537;SDS011;3302;52.508;13.454;2024-03-06T10:41:53;8.90;;;6.00;;
6537;SDS011;3302;52.508;13.454;2024-03-06T10:44:21;9.13;;;6.17;;
6537;SDS011;3302;52.508;13.454;2024-03-06T10:46:51;8.33;;;5.67;;
6537;SDS011;3302;52.508;13.454;2024-03-06T10:49:23;7.43;;;6.03;;
6537;SDS011;3302;52.508;13.454;2024-03-06T10:51:51;8.33;;;5.50;;
6537;SDS011;3302;52.508;13.454;2024-03-06T10:54:18;6.90;;;6.03;;
6537;SDS011;3302;52.508;13.454;2024-03-06T10:56:46;8.47;;;6.70;;
6537;SDS011;3302;52.508;13.454;2024-03-06T10:59:12;9.50;;;6.57;;
6537;SDS011;3302;52.508;13.454;2024-03-06T11:01:41;9.37;;;6.73;;
6537;SDS011;3302;52.508;13.454;2024-03-06T11:04:09;7.90;;;6.50;;
6537;SDS011;3302;52.508;13.454;2024-03-06T11:06:37;8.37;;;6.40;;
6537;SDS011;3302;52.508;13.454;2024-03-06T11:09:03;8.50;;;6.83;;
6537;SDS011;3302;52.508;13.454;2024-03-06T11:11:29;6.60;;;5.87;;
6537;SDS011;3302;52.508;13.454;2024-03-06T11:14:01;8.47;;;6.10;;
6537;SDS011;3302;52.508;13.454;2024-03-06T11:16:29;8.17;;;6.17;;
6537;SDS011;3302;52.508;13.454;2024-03-06T11:19:08;9.30;;;7.60;;
6537;SDS011;3302;52.508;13.454;2024-03-06T11:21:34;8.83;;;7.00;;
6537;SDS011;3302;52.508;13.454;2024-03-06T11:24:14;9.77;;;7.83;;
6537;SDS011;3302;52.508;13.454;2024-03-06T11:26:42;9.40;;;7.67;;
6537;SDS011;3302;52.508;13.454;2024-03-06T11:29:11;9.17;;;8.00;;
6537;SDS011;3302;52.508;13.454;2024-03-06T11:31:36;9.40;;;7.40;;
6537;SDS011;3302;52.508;13.454;2024-03-06T11:34:04;10.30;;;8.47;;
6537;SDS011;3302;52.508;13.454;2024-03-06T11:36:30;11.70;;;9.13;;
6537;SDS011;3302;52.508;13.454;2024-03-06T11:39:02;9.90;;;8.33;;
6537;SDS011;3302;52.508;13.454;2024-03-06T11:41:31;14.17;;;9.73;;
6537;SDS011;3302;52.508;13.454;2024-03-06T11:44:01;12.03;;;8.97;;
6537;SDS011;3302;52.508;13.454;2024-03-06T11:49:22;11.13;;;9.13;;
6537;SDS011;3302;52.508;13.454;2024-03-06T11:51:56;10.23;;;8.23;;
6537;SDS011;3302;52.508;13.454;2024-03-06T11:54:24;11.47;;;10.10;;
6537;SDS011;3302;52.508;13.454;2024-03-06T11:56:55;12.63;;;11.07;;
6537;SDS011;3302;52.508;13.454;2024-03-06T11:59:25;13.93;;;10.90;;
6537;SDS011;3302;52.508;13.454;2024-03-06T12:01:53;13.07;;;10.90;;
6537;SDS011;3302;52.508;13.454;2024-03-06T12:04:20;13.27;;;11.10;;
6537;SDS011;3302;52.508;13.454;2024-03-06T12:06:46;13.07;;;10.33;;
6537;SDS011;3302;52.508;13.454;2024-03-06T12:09:13;14.80;;;11.57;;
6537;SDS011;3302;52.508;13.454;2024-03-06T12:11:40;15.57;;;11.90;;
6537;SDS011;3302;52.508;13.454;2024-03-06T12:14:18;15.73;;;12.23;;
6537;SDS011;3302;52.508;13.454;2024-03-06T12:16:57;15.03;;;12.33;;
6537;SDS011;3302;52.508;13.454;2024-03-06T12:19:28;15.27;;;11.97;;
6537;SDS011;3302;52.508;13.454;2024-03-06T12:21:59;11.70;;;9.73;;
6537;SDS011;3302;52.508;13.454;2024-03-06T12:24:25;11.60;;;9.47;;
6537;SDS011;3302;52.508;13.454;2024-03-06T12:26:59;13.07;;;10.07;;
6537;SDS011;3302;52.508;13.454;2024-03-06T12:29:27;11.80;;;9.03;;
6537;SDS011;3302;52.508;13.454;2024-03-06T12:31:55;9.63;;;8.47;;
6537;SDS011;3302;52.508;13.454;2024-03-06T12:34:22;9.00;;;7.77;;
6537;SDS011;3302;52.508;13.454;2024-03-06T12:36:48;10.07;;;8.20;;
6537;SDS011;3302;52.508;13.454;2024-03-06T12:39:15;8.80;;;7.60;;
6537;SDS011;3302;52.508;13.454;2024-03-06T12:41:46;8.87;;;7.60;;
6537;SDS011;3302;52.508;13.454;2024-03-06T12:44:12;10.07;;;7.90;;
6537;SDS011;3302;52.508;13.454;2024-03-06T12:46:38;9.20;;;7.30;;
6537;SDS011;3302;52.508;13.454;2024-03-06T12:49:04;9.93;;;7.57;;
6537;SDS011;3302;52.508;13.454;2024-03-06T12:51:30;9.77;;;7.67;;
6537;SDS011;3302;52.508;13.454;2024-03-06T12:53:58;9.37;;;8.13;;
6537;SDS011;3302;52.508;13.454;2024-03-06T12:56:24;9.33;;;7.70;;
6537;SDS011;3302;52.508;13.454;2024-03-06T12:58:50;10.53;;;8.10;;
6537;SDS011;3302;52.508;13.454;2024-03-06T13:01:17;10.07;;;8.50;;
6537;SDS011;3302;52.508;13.454;2024-03-06T13:03:42;10.27;;;7.43;;
6537;SDS011;3302;52.508;13.454;2024-03-06T13:06:08;10.17;;;7.80;;
6537;SDS011;3302;52.508;13.454;2024-03-06T13:08:38;9.53;;;7.63;;
6537;SDS011;3302;52.508;13.454;2024-03-06T13:11:03;9.23;;;7.60;;
6537;SDS011;3302;52.508;13.454;2024-03-06T13:13:29;10.53;;;8.07;;
6537;SDS011;3302;52.508;13.454;2024-03-06T13:15:58;11.10;;;8.27;;
6537;SDS011;3302;52.508;13.454;2024-03-06T13:18:24;11.60;;;8.30;;
6537;SDS011;3302;52.508;13.454;2024-03-06T13:20:51;11.03;;;9.20;;
6537;SDS011;3302;52.508;13.454;2024-03-06T13:23:17;12.93;;;9.53;;
6537;SDS011;3302;52.508;13.454;2024-03-06T13:25:43;13.63;;;10.30;;
6537;SDS011;3302;52.508;13.454;2024-03-06T13:28:10;14.57;;;10.67;;
6537;SDS011;3302;52.508;13.454;2024-03-06T13:30:37;13.10;;;9.47;;
6537;SDS011;3302;52.508;13.454;2024-03-06T13:33:04;13.83;;;9.93;;
6537;SDS011;3302;52.508;13.454;2024-03-06T13:35:30;13.57;;;10.07;;
6537;SDS011;3302;52.508;13.454;2024-03-06T13:37:56;16.10;;;10.20;;
6537;SDS011;3302;52.508;13.454;2024-03-06T13:40:22;16.30;;;11.03;;
6537;SDS011;3302;52.508;13.454;2024-03-06T13:42:48;18.00;;;12.90;;
6537;SDS011;3302;52.508;13.454;2024-03-06T13:45:14;22.10;;;13.43;;
6537;SDS011;3302;52.508;13.454;2024-03-06T13:47:41;19.13;;;13.13;;
6537;SDS011;3302;52.508;13.454;2024-03-06T13:50:08;23.03;;;14.40;;
6537;SDS011;3302;52.508;13.454;2024-03-06T13:52:35;21.33;;;13.97;;
6537;SDS011;3302;52.508;13.454;2024-03-06T13:55:01;18.00;;;13.20;;
6537;SDS011;3302;52.508;13.454;2024-03-06T13:57:29;20.03;;;12.30;;
6537;SDS011;3302;52.508;13.454;2024-03-06T14:00:06;16.00;;;11.17;;
6537;SDS011;3302;52.508;13.454;2024-03-06T14:02:52;13.97;;;9.67;;
6537;SDS011;3302;52.508;13.454;2024-03-06T14:05:18;13.73;;;8.87;;
6537;SDS011;3302;52.508;13.454;2024-03-06T14:07:52;12.20;;;9.10;;
6537;SDS011;3302;52.508;13.454;2024-03-06T14:10:18;12.60;;;10.20;;
6537;SDS011;3302;52.508;13.454;2024-03-06T14:12:45;14.57;;;11.03;;
6537;SDS011;3302;52.508;13.454;2024-03-06T14:15:11;14.93;;;9.60;;
6537;SDS011;3302;52.508;13.454;2024-03-06T14:17:41;11.77;;;8.93;;
6537;SDS011;3302;52.508;13.454;2024-03-06T14:20:07;12.90;;;9.47;;
6537;SDS011;3302;52.508;13.454;2024-03-06T14:22:34;13.93;;;9.83;;
6537;SDS011;3302;52.508;13.454;2024-03-06T14:25:00;14.73;;;10.30;;
6537;SDS011;3302;52.508;13.454;2024-03-06T14:27:26;17.27;;;12.13;;
6537;SDS011;3302;52.508;13.454;2024-03-06T14:29:52;16.87;;;12.20;;
6537;SDS011;3302;52.508;13.454;2024-03-06T14:32:19;27.90;;;13.37;;
6537;SDS011;3302;52.508;13.454;2024-03-06T14:34:45;24.20;;;13.23;;
6537;SDS011;3302;52.508;13.454;2024-03-06T14:37:12;22.80;;;13.20;;
6537;SDS011;3302;52.508;13.454;2024-03-06T14:39:38;20.77;;;12.13;;
6537;SDS011;3302;52.508;13.454;2024-03-06T14:42:04;22.27;;;12.27;;
6537;SDS011;3302;52.508;13.454;2024-03-06T14:44:30;18.37;;;11.17;;
6537;SDS011;3302;52.508;13.454;2024-03-06T14:46:56;20.27;;;12.60;;
6537;SDS011;3302;52.508;13.454;2024-03-06T14:49:22;23.03;;;13.53;;
6537;SDS011;3302;52.508;13.454;2024-03-06T14:51:48;20.63;;;13.27;;